createdAt,value
2022-11-13T00:00:33.545Z,3.20
2022-11-13T00:03:20.905Z,3.20
2022-11-13T00:06:07.986Z,3.20
2022-11-13T00:08:55.722Z,3.20
2022-11-13T00:11:42.620Z,3.10
2022-11-13T00:14:31.034Z,3.20
2022-11-13T00:17:17.738Z,3.10
2022-11-13T00:20:05.651Z,3.20
2022-11-13T00:22:52.347Z,3.20
2022-11-13T00:25:39.497Z,3.20
2022-11-13T00:28:26.673Z,3.20
2022-11-13T00:31:16.513Z,3.20
2022-11-13T00:37:10.826Z,3.10
2022-11-13T00:39:59.783Z,3.10
2022-11-13T00:42:46.826Z,3.00
2022-11-13T00:45:33.854Z,3.00
2022-11-13T00:48:22.317Z,2.90
2022-11-13T00:51:09.340Z,2.90
2022-11-13T00:53:56.184Z,2.90
2022-11-13T00:56:43.647Z,2.90
2022-11-13T00:59:30.559Z,2.80
2022-11-13T01:02:20.499Z,2.80
2022-11-13T01:05:10.141Z,2.80
2022-11-13T01:07:57.410Z,2.80
2022-11-13T01:10:50.396Z,2.80
2022-11-13T01:13:40.961Z,2.70
2022-11-13T01:16:29.157Z,2.60
2022-11-13T01:19:16.686Z,2.60
2022-11-13T01:22:05.003Z,2.50
2022-11-13T01:24:52.118Z,2.40
2022-11-13T01:27:39.488Z,2.40
2022-11-13T01:30:26.177Z,2.30
2022-11-13T01:33:13.167Z,2.20
2022-11-13T01:36:04.324Z,2.20
2022-11-13T01:38:53.672Z,2.10
2022-11-13T01:41:41.220Z,2.10
2022-11-13T01:44:46.012Z,2.00
2022-11-13T01:47:32.920Z,2.00
2022-11-13T01:50:19.852Z,1.90
2022-11-13T01:53:07.647Z,1.90
2022-11-13T01:55:56.016Z,1.90
2022-11-13T01:58:45.122Z,1.90
2022-11-13T02:01:32.073Z,1.80
2022-11-13T02:04:19.598Z,1.80
2022-11-13T02:07:09.192Z,1.80
2022-11-13T02:09:58.194Z,1.80
2022-11-13T02:12:50.723Z,1.70
2022-11-13T02:15:37.759Z,1.70
2022-11-13T02:18:26.624Z,1.60
2022-11-13T02:21:30.243Z,1.50
2022-11-13T02:24:24.099Z,1.50
2022-11-13T02:27:15.899Z,1.40
2022-11-13T02:30:16.039Z,1.40
2022-11-13T02:33:03.263Z,1.30
2022-11-13T02:35:50.298Z,1.20
2022-11-13T02:38:42.038Z,1.10
2022-11-13T02:41:30.553Z,1.10
2022-11-13T02:44:17.689Z,1.00
2022-11-13T02:47:04.879Z,1.00
2022-11-13T02:49:51.865Z,0.90
2022-11-13T02:52:39.006Z,0.90
2022-11-13T02:55:26.095Z,0.90
2022-11-13T02:58:14.097Z,0.80
2022-11-13T03:01:03.574Z,0.80
2022-11-13T03:03:58.471Z,0.70
2022-11-13T03:06:45.310Z,0.70
2022-11-13T03:09:32.303Z,0.60
2022-11-13T03:12:19.000Z,0.60
2022-11-13T03:15:14.195Z,0.60
2022-11-13T03:18:04.421Z,0.60
2022-11-13T03:20:53.956Z,0.60
2022-11-13T03:23:42.053Z,0.60
2022-11-13T03:26:29.222Z,0.70
2022-11-13T03:29:16.084Z,0.70
2022-11-13T03:32:05.383Z,0.60
2022-11-13T03:34:52.158Z,0.70
2022-11-13T03:37:39.114Z,0.70
2022-11-13T03:40:26.112Z,0.80
2022-11-13T03:43:13.121Z,0.90
2022-11-13T03:46:00.059Z,1.00
2022-11-13T03:48:48.580Z,1.10
2022-11-13T03:51:35.950Z,1.10
2022-11-13T03:54:23.007Z,1.10
2022-11-13T03:57:10.023Z,1.20
2022-11-13T03:59:57.127Z,1.20
2022-11-13T04:02:44.248Z,1.30
2022-11-13T04:05:33.013Z,1.30
2022-11-13T04:08:20.213Z,1.40
2022-11-13T04:11:08.011Z,1.50
2022-11-13T04:13:54.794Z,1.50
2022-11-13T04:16:41.877Z,1.60
2022-11-13T04:19:28.883Z,1.60
2022-11-13T04:22:17.259Z,1.60
2022-11-13T04:25:04.199Z,1.60
2022-11-13T04:27:51.440Z,1.50
2022-11-13T04:30:38.511Z,1.50
2022-11-13T04:33:25.238Z,1.50
2022-11-13T04:36:12.241Z,1.50
2022-11-13T04:39:00.568Z,1.50
2022-11-13T04:42:05.040Z,1.50
2022-11-13T04:44:52.237Z,1.50
2022-11-13T04:47:39.149Z,1.50
2022-11-13T04:50:26.682Z,1.50
2022-11-13T04:53:13.671Z,1.50
2022-11-13T04:56:02.160Z,1.50
2022-11-13T04:58:48.947Z,1.50
2022-11-13T05:01:36.549Z,1.50
2022-11-13T05:04:24.188Z,1.50
2022-11-13T05:07:10.994Z,1.50
2022-11-13T05:09:57.776Z,1.40
2022-11-13T05:12:46.808Z,1.40
2022-11-13T05:15:33.536Z,1.30
2022-11-13T05:18:21.211Z,1.30
2022-11-13T05:21:09.923Z,1.20
2022-11-13T05:23:57.603Z,1.20
2022-11-13T05:26:44.612Z,1.20
2022-11-13T05:29:32.983Z,1.10
2022-11-13T05:32:19.763Z,1.20
2022-11-13T05:35:07.116Z,1.20
2022-11-13T05:37:54.300Z,1.20
2022-11-13T05:40:41.296Z,1.20
2022-11-13T05:43:28.286Z,1.20
2022-11-13T05:46:18.802Z,1.20
2022-11-13T05:49:05.836Z,1.20
2022-11-13T05:51:55.017Z,1.20
2022-11-13T05:54:41.943Z,1.20
2022-11-13T05:57:29.106Z,1.20
2022-11-13T06:00:17.390Z,1.10
2022-11-13T06:03:05.760Z,1.10
2022-11-13T06:05:52.649Z,1.10
2022-11-13T06:08:40.257Z,1.10
2022-11-13T06:11:28.836Z,1.10
2022-11-13T06:14:15.963Z,1.10
2022-11-13T06:17:02.716Z,1.10
2022-11-13T06:19:50.977Z,1.10
2022-11-13T06:22:37.641Z,1.20
2022-11-13T06:25:24.705Z,1.20
2022-11-13T06:28:11.930Z,1.20
2022-11-13T06:31:04.919Z,1.20
2022-11-13T06:33:52.176Z,1.20
2022-11-13T06:36:40.375Z,1.20
2022-11-13T06:39:27.320Z,1.20
2022-11-13T06:42:14.182Z,1.20
2022-11-13T06:45:01.099Z,1.20
2022-11-13T06:47:48.049Z,1.30
2022-11-13T06:50:35.069Z,1.40
2022-11-13T06:53:23.319Z,1.50
2022-11-13T06:56:11.561Z,1.60
2022-11-13T06:58:58.587Z,1.70
2022-11-13T07:01:45.820Z,1.70
2022-11-13T07:04:32.683Z,1.80
2022-11-13T07:07:19.692Z,1.80
2022-11-13T07:10:09.266Z,1.80
2022-11-13T07:12:59.436Z,1.90
2022-11-13T07:15:46.123Z,1.90
2022-11-13T07:18:33.725Z,2.00
2022-11-13T07:21:21.654Z,2.00
2022-11-13T07:24:11.547Z,2.10
2022-11-13T07:27:03.555Z,2.20
2022-11-13T07:29:50.239Z,2.30
2022-11-13T07:32:37.596Z,2.30
2022-11-13T07:35:24.492Z,2.30
2022-11-13T07:38:11.314Z,2.40
2022-11-13T07:40:59.765Z,2.40
2022-11-13T07:43:47.981Z,2.60
2022-11-13T07:46:35.007Z,2.60
2022-11-13T07:49:21.827Z,2.70
2022-11-13T07:52:09.296Z,2.80
2022-11-13T07:54:56.303Z,2.90
2022-11-13T07:57:43.429Z,3.00
2022-11-13T08:00:34.214Z,3.10
2022-11-13T08:03:20.918Z,3.20
2022-11-13T08:06:09.570Z,3.10
2022-11-13T08:08:56.639Z,3.20
2022-11-13T08:11:43.593Z,3.30
2022-11-13T08:14:30.544Z,3.40
2022-11-13T08:17:18.994Z,3.50
2022-11-13T08:20:11.526Z,3.60
2022-11-13T08:23:00.273Z,3.60
2022-11-13T08:25:47.168Z,3.50
2022-11-13T08:28:34.383Z,3.40
2022-11-13T08:31:21.351Z,3.30
2022-11-13T08:34:09.804Z,3.30
2022-11-13T08:36:56.487Z,3.30
2022-11-13T08:39:43.369Z,3.40
2022-11-13T08:42:30.408Z,3.50
2022-11-13T08:45:17.452Z,3.60
2022-11-13T08:48:05.698Z,3.80
2022-11-13T08:50:54.693Z,3.90
2022-11-13T08:53:41.325Z,4.00
2022-11-13T08:56:28.659Z,4.20
2022-11-13T08:59:15.952Z,4.20
2022-11-13T09:02:02.844Z,4.30
2022-11-13T09:04:49.823Z,4.40
2022-11-13T09:07:38.171Z,4.40
2022-11-13T09:10:25.572Z,4.50
2022-11-13T09:13:12.903Z,4.60
2022-11-13T09:16:00.518Z,4.70
2022-11-13T09:18:50.418Z,4.80
2022-11-13T09:21:37.277Z,4.90
2022-11-13T09:24:25.655Z,5.10
2022-11-13T09:27:13.686Z,5.30
2022-11-13T09:30:00.702Z,5.50
2022-11-13T09:32:47.741Z,5.80
2022-11-13T09:35:37.474Z,6.10
2022-11-13T09:38:24.912Z,6.40
2022-11-13T09:41:16.635Z,6.60
2022-11-13T09:44:07.163Z,6.90
2022-11-13T09:46:59.111Z,7.20
2022-11-13T09:49:48.257Z,7.30
2022-11-13T09:52:38.081Z,7.50
2022-11-13T09:55:30.020Z,7.60
2022-11-13T09:58:25.418Z,7.90
2022-11-13T10:01:18.721Z,8.00
2022-11-13T10:04:14.298Z,8.20
2022-11-13T10:07:20.081Z,8.40
2022-11-13T10:10:33.179Z,8.60
2022-11-13T10:13:25.062Z,8.90
2022-11-13T10:16:19.090Z,9.10
2022-11-13T10:19:11.753Z,9.40
2022-11-13T10:22:31.118Z,9.70
2022-11-13T10:25:17.075Z,10.00
2022-11-13T10:28:35.397Z,10.40
2022-11-13T10:31:21.772Z,10.50
2022-11-13T10:34:08.583Z,10.70
2022-11-13T10:37:25.455Z,10.80
2022-11-13T10:40:12.683Z,11.00
2022-11-13T10:43:07.452Z,11.10
2022-11-13T10:45:58.623Z,11.30
2022-11-13T10:48:46.938Z,11.40
2022-11-13T10:51:35.956Z,11.50
2022-11-13T10:54:26.077Z,11.70
2022-11-13T10:57:33.229Z,11.80
2022-11-13T11:00:23.085Z,12.10
2022-11-13T11:03:10.053Z,12.30
2022-11-13T11:05:59.942Z,12.70
2022-11-13T11:08:47.076Z,13.10
2022-11-13T11:12:03.307Z,13.40
2022-11-13T11:15:07.455Z,13.60
2022-11-13T11:17:58.641Z,14.10
2022-11-13T11:20:49.845Z,14.40
2022-11-13T11:23:49.481Z,14.80
2022-11-13T11:26:42.145Z,15.00
2022-11-13T11:29:34.423Z,15.10
2022-11-13T11:32:28.475Z,15.10
2022-11-13T11:35:20.175Z,15.20
2022-11-13T11:38:12.710Z,15.30
2022-11-13T11:41:15.006Z,15.40
2022-11-13T11:44:14.954Z,15.50
2022-11-13T11:47:01.678Z,15.70
2022-11-13T11:49:48.861Z,15.90
2022-11-13T11:52:50.790Z,16.20
2022-11-13T11:55:54.312Z,16.40
2022-11-13T11:59:10.487Z,16.40
2022-11-13T12:02:21.797Z,16.40
2022-11-13T12:05:24.265Z,16.40
2022-11-13T12:08:21.749Z,16.40
2022-11-13T12:11:15.614Z,16.30
2022-11-13T12:14:16.319Z,16.30
2022-11-13T12:17:17.545Z,16.50
2022-11-13T12:20:16.196Z,16.80
2022-11-13T12:23:16.112Z,16.80
2022-11-13T12:26:08.351Z,16.80
2022-11-13T12:29:03.992Z,16.70
2022-11-13T12:32:01.860Z,16.60
2022-11-13T12:34:52.787Z,16.80
2022-11-13T12:37:48.541Z,17.00
2022-11-13T12:40:44.475Z,17.20
2022-11-13T12:43:49.168Z,17.30
2022-11-13T12:46:38.723Z,17.30
2022-11-13T12:49:33.194Z,17.50
2022-11-13T12:52:23.985Z,17.50
2022-11-13T12:55:27.633Z,17.50
2022-11-13T12:58:22.617Z,17.40
2022-11-13T13:01:18.632Z,17.20
2022-11-13T13:04:34.768Z,17.10
2022-11-13T13:07:36.956Z,17.00
2022-11-13T13:10:33.430Z,17.00
2022-11-13T13:13:29.251Z,17.00
2022-11-13T13:16:24.822Z,17.00
2022-11-13T13:19:26.843Z,17.10
2022-11-13T13:22:27.596Z,17.10
2022-11-13T13:25:27.181Z,17.10
2022-11-13T13:28:21.375Z,17.10
2022-11-13T13:31:20.408Z,17.20
2022-11-13T13:34:23.031Z,17.40
2022-11-13T13:37:22.868Z,17.50
2022-11-13T13:40:22.399Z,17.70
2022-11-13T13:43:29.212Z,17.60
2022-11-13T13:46:18.846Z,17.60
2022-11-13T13:49:10.436Z,17.60
2022-11-13T13:51:58.508Z,17.50
2022-11-13T13:54:47.159Z,17.40
2022-11-13T13:57:34.377Z,17.00
2022-11-13T14:00:22.315Z,16.80
2022-11-13T14:03:20.558Z,16.60
2022-11-13T14:06:18.229Z,16.40
2022-11-13T14:09:12.510Z,16.40
2022-11-13T14:12:08.025Z,16.50
2022-11-13T14:14:56.382Z,16.50
2022-11-13T14:17:44.619Z,16.70
2022-11-13T14:20:42.200Z,16.90
2022-11-13T14:23:32.055Z,17.00
2022-11-13T14:26:20.916Z,16.90
2022-11-13T14:29:37.448Z,16.70
2022-11-13T14:32:26.444Z,16.50
2022-11-13T14:35:21.022Z,16.40
2022-11-13T14:38:20.080Z,16.30
2022-11-13T14:41:07.988Z,16.30
2022-11-13T14:43:55.363Z,16.30
2022-11-13T14:46:45.404Z,16.10
2022-11-13T14:49:35.177Z,15.90
2022-11-13T14:52:24.430Z,15.60
2022-11-13T14:55:22.738Z,15.30
2022-11-13T14:58:13.926Z,15.10
2022-11-13T15:01:14.347Z,14.80
2022-11-13T15:04:03.359Z,14.40
2022-11-13T15:06:50.885Z,14.20
2022-11-13T15:09:37.438Z,14.00
2022-11-13T15:12:24.588Z,13.80
2022-11-13T15:15:15.899Z,13.60
2022-11-13T15:18:03.261Z,13.30
2022-11-13T15:20:51.906Z,13.10
2022-11-13T15:23:38.874Z,12.90
2022-11-13T15:26:25.929Z,12.70
2022-11-13T15:29:12.881Z,12.40
2022-11-13T15:32:00.283Z,12.20
2022-11-13T15:34:47.053Z,12.00
2022-11-13T15:37:35.380Z,11.90
2022-11-13T15:40:22.160Z,11.70
2022-11-13T15:43:16.189Z,11.60
2022-11-13T15:46:03.886Z,11.50
2022-11-13T15:48:51.232Z,11.50
2022-11-13T15:51:41.361Z,11.30
2022-11-13T15:54:34.811Z,11.10
2022-11-13T15:57:23.219Z,10.80
2022-11-13T16:00:15.868Z,10.60
2022-11-13T16:03:04.632Z,10.40
2022-11-13T16:05:51.788Z,10.20
2022-11-13T16:08:38.826Z,10.00
2022-11-13T16:11:27.660Z,10.00
2022-11-13T16:14:14.919Z,10.00
2022-11-13T16:17:01.799Z,9.90
2022-11-13T16:19:51.102Z,9.80
2022-11-13T16:22:37.706Z,9.60
2022-11-13T16:25:25.186Z,9.50
2022-11-13T16:28:17.704Z,9.30
2022-11-13T16:31:05.290Z,9.20
2022-11-13T16:33:52.335Z,9.20
2022-11-13T16:36:39.296Z,9.20
2022-11-13T16:39:26.028Z,9.00
2022-11-13T16:42:14.266Z,9.00
2022-11-13T16:45:02.586Z,8.90
2022-11-13T16:47:50.757Z,8.80
2022-11-13T16:50:39.647Z,8.70
2022-11-13T16:53:26.920Z,8.70
2022-11-13T16:56:16.105Z,8.60
2022-11-13T16:59:02.952Z,8.50
2022-11-13T17:01:55.235Z,8.30
2022-11-13T17:04:42.523Z,8.20
2022-11-13T17:07:30.164Z,8.10
2022-11-13T17:10:34.756Z,8.00
2022-11-13T17:13:21.439Z,7.90
2022-11-13T17:16:10.124Z,7.80
2022-11-13T17:18:59.029Z,7.70
2022-11-13T17:21:45.749Z,7.70
2022-11-13T17:24:32.853Z,7.50
2022-11-13T17:27:19.925Z,7.40
2022-11-13T17:30:08.181Z,7.30
2022-11-13T17:32:56.650Z,7.20
2022-11-13T17:35:46.379Z,7.10
2022-11-13T17:38:34.739Z,7.10
2022-11-13T17:41:22.288Z,6.90
2022-11-13T17:44:09.422Z,6.80
2022-11-13T17:47:00.271Z,6.80
2022-11-13T17:49:47.570Z,6.70
2022-11-13T17:52:36.142Z,6.60
2022-11-13T17:55:23.469Z,6.40
2022-11-13T17:58:10.118Z,6.30
2022-11-13T18:01:05.905Z,6.20
2022-11-13T18:03:56.129Z,6.20
2022-11-13T18:06:42.788Z,6.10
2022-11-13T18:09:31.618Z,6.00
2022-11-13T18:12:18.383Z,6.00
2022-11-13T18:15:05.793Z,6.10
2022-11-13T18:17:52.818Z,6.00
2022-11-13T18:20:42.236Z,5.90
2022-11-13T18:23:30.495Z,5.80
2022-11-13T18:26:20.593Z,5.70
2022-11-13T18:29:10.230Z,5.60
2022-11-13T18:31:56.893Z,5.50
2022-11-13T18:34:44.072Z,5.50
2022-11-13T18:37:31.335Z,5.40
2022-11-13T18:40:18.406Z,5.40
2022-11-13T18:43:07.341Z,5.50
2022-11-13T18:45:57.767Z,5.50
2022-11-13T18:48:45.814Z,5.40
2022-11-13T18:51:35.481Z,5.40
2022-11-13T18:54:29.052Z,5.40
2022-11-13T18:57:16.990Z,5.30
2022-11-13T19:00:05.988Z,5.20
2022-11-13T19:02:52.687Z,5.10
2022-11-13T19:05:46.939Z,5.00
2022-11-13T19:08:40.382Z,4.80
2022-11-13T19:11:29.195Z,4.80
2022-11-13T19:14:17.997Z,4.70
2022-11-13T19:17:06.067Z,4.60
2022-11-13T19:19:55.428Z,4.60
2022-11-13T19:22:42.405Z,4.50
2022-11-13T19:25:29.422Z,4.50
2022-11-13T19:28:16.366Z,4.40
2022-11-13T19:31:08.033Z,4.40
2022-11-13T19:33:59.937Z,4.30
2022-11-13T19:36:49.483Z,4.30
2022-11-13T19:39:36.687Z,4.20
2022-11-13T19:42:23.523Z,4.20
2022-11-13T19:45:11.140Z,4.20
2022-11-13T19:47:57.982Z,4.10
2022-11-13T19:50:47.386Z,4.10
2022-11-13T19:53:33.967Z,4.00
2022-11-13T19:56:22.394Z,4.00
2022-11-13T19:59:11.256Z,3.90
2022-11-13T20:01:58.203Z,3.90
2022-11-13T20:04:45.260Z,3.90
2022-11-13T20:07:37.327Z,3.90
2022-11-13T20:10:24.076Z,3.90
2022-11-13T20:13:11.386Z,3.90
2022-11-13T20:15:58.000Z,3.80
2022-11-13T20:18:45.585Z,3.80
2022-11-13T20:21:32.671Z,3.70
2022-11-13T20:24:20.804Z,3.60
2022-11-13T20:27:07.720Z,3.60
2022-11-13T20:29:54.830Z,3.50
2022-11-13T20:32:42.179Z,3.50
2022-11-13T20:35:28.804Z,3.50
2022-11-13T20:38:16.026Z,3.40
2022-11-13T20:41:06.759Z,3.40
2022-11-13T20:43:55.860Z,3.40
2022-11-13T20:46:43.203Z,3.30
2022-11-13T20:49:29.751Z,3.30
2022-11-13T20:52:16.739Z,3.30
2022-11-13T20:55:03.931Z,3.30
2022-11-13T20:57:52.238Z,3.30
2022-11-13T21:00:38.900Z,3.30
2022-11-13T21:03:25.767Z,3.30
2022-11-13T21:06:15.151Z,3.20
2022-11-13T21:09:03.538Z,3.20
2022-11-13T21:11:50.344Z,3.20
2022-11-13T21:14:38.705Z,3.20
2022-11-13T21:17:25.385Z,3.20
2022-11-13T21:20:13.098Z,3.10
2022-11-13T21:23:00.025Z,3.10
2022-11-13T21:25:47.597Z,3.00
2022-11-13T21:28:34.985Z,3.00
2022-11-13T21:31:23.277Z,3.00
2022-11-13T21:34:11.048Z,3.00
2022-11-13T21:36:58.009Z,3.00
2022-11-13T21:39:46.406Z,3.00
2022-11-13T21:42:33.894Z,3.00
2022-11-13T21:45:20.901Z,3.00
2022-11-13T21:48:09.033Z,3.00
2022-11-13T21:50:55.760Z,2.90
2022-11-13T21:53:43.448Z,2.90
2022-11-13T21:56:35.950Z,2.80
2022-11-13T21:59:23.117Z,2.80
2022-11-13T22:02:11.945Z,2.70
2022-11-13T22:05:00.187Z,2.70
2022-11-13T22:07:47.229Z,2.70
2022-11-13T22:10:34.094Z,2.70
2022-11-13T22:13:20.932Z,2.80
2022-11-13T22:16:09.560Z,2.80
2022-11-13T22:18:57.428Z,2.80
2022-11-13T22:21:46.842Z,2.80
2022-11-13T22:24:33.573Z,2.80
2022-11-13T22:27:20.534Z,2.70
2022-11-13T22:30:08.731Z,2.70
2022-11-13T22:32:55.360Z,2.70
2022-11-13T22:35:42.806Z,2.70
2022-11-13T22:38:32.059Z,2.80
2022-11-13T22:41:23.623Z,2.80
2022-11-13T22:44:14.340Z,2.80
2022-11-13T22:47:01.015Z,2.70
2022-11-13T22:49:47.964Z,2.70
2022-11-13T22:52:34.920Z,2.80
2022-11-13T22:55:23.244Z,2.70
2022-11-13T22:58:09.840Z,2.70
2022-11-13T23:00:56.829Z,2.70
2022-11-13T23:03:46.464Z,2.60
2022-11-13T23:06:34.741Z,2.60
2022-11-13T23:09:22.364Z,2.50
2022-11-13T23:12:10.512Z,2.50
2022-11-13T23:14:57.455Z,2.40
2022-11-13T23:17:46.108Z,2.40
2022-11-13T23:20:32.787Z,2.40
2022-11-13T23:23:19.900Z,2.40
2022-11-13T23:26:08.812Z,2.40
2022-11-13T23:28:58.054Z,2.40
2022-11-13T23:31:44.754Z,2.40
2022-11-13T23:34:58.002Z,2.40
2022-11-13T23:37:39.083Z,2.40
2022-11-13T23:40:26.221Z,2.30
2022-11-13T23:43:13.388Z,2.30
2022-11-13T23:46:02.105Z,2.20
2022-11-13T23:48:49.469Z,2.20
2022-11-13T23:51:36.181Z,2.20
2022-11-13T23:54:23.218Z,2.20
2022-11-13T23:57:10.311Z,2.20
2022-11-13T23:59:57.262Z,2.20
